Time;durP1;ratioP1;P1;durP2;ratioP2;P2;SDS_P1;SDS_P2;PMS_P1;PMS_P2;Temp;Humidity;BMP_temperature;BMP_pressure;BME280_temperature;BME280_humidity;BME280_pressure;Samples;Min_cycle;Max_cycle;Signal;HPM_P1;HPM_P2
2023/02/25 00:00:21;;;;;;;;;;;20.40;35.70;;;;;;8363114;28;19921;-46
2023/02/25 00:04:21;;;;;;;;;;;20.30;35.00;;;;;;8362510;28;19951;-46
2023/02/25 00:08:22;;;;;;;;;;;20.30;35.00;;;;;;8363171;28;19970;-44
2023/02/25 00:12:22;;;;;;;;;;;20.30;35.00;;;;;;8362707;28;19917;-46
2023/02/25 00:16:23;;;;;;;;;;;20.30;35.00;;;;;;8362504;28;20370;-46
2023/02/25 00:20:24;;;;;;;;;;;20.20;35.00;;;;;;8362863;28;19916;-45
2023/02/25 00:24:24;;;;;;;;;;;20.20;35.00;;;;;;8362760;28;19941;-46
2023/02/25 00:28:25;;;;;;;;;;;20.20;35.00;;;;;;8362085;28;19970;-46
2023/02/25 00:32:25;;;;;;;;;;;20.20;35.10;;;;;;8362522;28;19917;-46
2023/02/25 00:36:26;;;;;;;;;;;20.20;35.00;;;;;;8362754;28;19931;-46
2023/02/25 00:40:26;;;;;;;;;;;20.20;35.20;;;;;;8361887;28;20389;-46
2023/02/25 00:44:27;;;;;;;;;;;20.10;35.00;;;;;;8362355;28;20404;-46
2023/02/25 00:48:27;;;;;;;;;;;20.10;35.00;;;;;;8362308;28;19967;-45
2023/02/25 00:52:28;;;;;;;;;;;20.10;35.00;;;;;;8361741;28;19920;-45
2023/02/25 00:56:28;;;;;;;;;;;20.10;35.00;;;;;;8363602;28;19921;-47
2023/02/25 01:00:29;;;;;;;;;;;20.10;35.00;;;;;;8368804;28;20377;-46
2023/02/25 01:04:30;;;;;;;;;;;20.10;35.10;;;;;;8367816;28;19924;-46
2023/02/25 01:08:30;;;;;;;;;;;20.10;35.10;;;;;;8368091;28;19924;-46
2023/02/25 01:12:31;;;;;;;;;;;20.00;35.00;;;;;;8367967;28;19936;-46
2023/02/25 01:16:32;;;;;;;;;;;20.00;35.00;;;;;;8368097;28;19928;-46
2023/02/25 01:20:36;;;;;;;;;;;20.00;35.10;;;;;;8367867;28;19952;-46
2023/02/25 01:24:37;;;;;;;;;;;20.00;35.10;;;;;;8367384;28;19917;-45
2023/02/25 01:28:37;;;;;;;;;;;19.90;35.00;;;;;;8367637;28;20439;-45
2023/02/25 01:32:38;;;;;;;;;;;19.90;35.00;;;;;;8367734;28;19942;-46
2023/02/25 01:36:38;;;;;;;;;;;19.90;35.00;;;;;;8367236;28;19921;-45
2023/02/25 01:40:39;;;;;;;;;;;19.90;35.00;;;;;;8367667;28;19917;-46
2023/02/25 01:44:59;;;;;;;;;;;19.90;35.00;;;;;;8367404;28;19916;-45
2023/02/25 01:49:00;;;;;;;;;;;19.90;34.90;;;;;;8366717;28;19917;-46
2023/02/25 01:53:01;;;;;;;;;;;19.90;34.90;;;;;;8367007;28;20126;-45
2023/02/25 01:57:04;;;;;;;;;;;19.90;35.00;;;;;;8366993;28;20325;-46
2023/02/25 02:01:09;;;;;;;;;;;19.80;34.90;;;;;;8366608;28;20388;-45
2023/02/25 02:05:11;;;;;;;;;;;19.80;35.00;;;;;;8357533;28;19917;-46
2023/02/25 02:09:14;;;;;;;;;;;19.80;35.10;;;;;;8345544;28;19913;-46
2023/02/25 02:13:15;;;;;;;;;;;19.80;35.00;;;;;;8365924;28;19923;-46
2023/02/25 02:17:15;;;;;;;;;;;19.80;35.00;;;;;;8366693;28;20394;-46
2023/02/25 02:21:16;;;;;;;;;;;19.80;35.00;;;;;;8366036;28;19917;-46
2023/02/25 02:25:31;;;;;;;;;;;19.80;35.10;;;;;;8365346;28;19924;-44
2023/02/25 02:29:50;;;;;;;;;;;19.80;35.10;;;;;;8365797;28;20267;-46
2023/02/25 02:34:01;;;;;;;;;;;19.70;35.00;;;;;;8365199;28;19917;-46
2023/02/25 02:38:13;;;;;;;;;;;19.70;35.10;;;;;;8365437;28;19921;-45
2023/02/25 02:42:23;;;;;;;;;;;19.70;35.10;;;;;;8365822;28;20263;-46
2023/02/25 02:46:26;;;;;;;;;;;19.70;35.10;;;;;;8364830;28;19935;-46
2023/02/25 02:50:44;;;;;;;;;;;19.70;35.10;;;;;;8365143;28;19917;-46
2023/02/25 02:54:48;;;;;;;;;;;19.70;35.70;;;;;;8364424;28;19928;-45
2023/02/25 02:58:57;;;;;;;;;;;19.70;35.10;;;;;;8365305;28;20066;-46
2023/02/25 03:03:02;;;;;;;;;;;19.60;35.10;;;;;;8365007;28;20286;-46
2023/02/25 03:07:05;;;;;;;;;;;19.70;35.20;;;;;;8364246;28;19943;-46
2023/02/25 03:11:06;;;;;;;;;;;19.60;35.10;;;;;;8364573;28;20358;-46
2023/02/25 03:15:07;;;;;;;;;;;19.60;35.10;;;;;;8364609;28;19967;-47
2023/02/25 03:19:13;;;;;;;;;;;19.60;35.10;;;;;;8363014;28;20286;-45
2023/02/25 03:23:18;;;;;;;;;;;19.60;35.10;;;;;;8364207;28;19919;-45
2023/02/25 03:27:33;;;;;;;;;;;19.60;35.20;;;;;;8364317;28;19958;-44
2023/02/25 03:31:35;;;;;;;;;;;19.50;35.10;;;;;;8363740;28;19928;-45
2023/02/25 03:35:36;;;;;;;;;;;19.50;35.20;;;;;;8363656;28;19933;-45
2023/02/25 03:39:39;;;;;;;;;;;19.50;35.10;;;;;;8363249;28;19917;-44
2023/02/25 03:43:43;;;;;;;;;;;19.50;35.10;;;;;;8363853;28;19996;-45
2023/02/25 03:47:43;;;;;;;;;;;19.50;35.20;;;;;;8364044;28;19913;-44
2023/02/25 03:51:46;;;;;;;;;;;19.50;35.10;;;;;;8363348;28;20420;-45
2023/02/25 03:55:47;;;;;;;;;;;19.50;35.10;;;;;;8363112;28;19932;-46
2023/02/25 03:59:48;;;;;;;;;;;19.50;35.10;;;;;;8363624;28;19925;-46
2023/02/25 04:03:48;;;;;;;;;;;19.50;35.20;;;;;;8362574;28;19917;-45
2023/02/25 04:07:48;;;;;;;;;;;19.50;35.20;;;;;;8363249;28;20285;-46
2023/02/25 04:11:49;;;;;;;;;;;19.50;35.20;;;;;;8362975;28;19917;-45
2023/02/25 04:15:49;;;;;;;;;;;19.50;35.20;;;;;;8362399;28;19931;-45
2023/02/25 04:19:50;;;;;;;;;;;19.40;35.20;;;;;;8362812;28;19924;-45
2023/02/25 04:23:50;;;;;;;;;;;19.50;35.20;;;;;;8363042;28;19913;-46
2023/02/25 04:27:51;;;;;;;;;;;19.40;35.10;;;;;;8362665;28;19927;-45
2023/02/25 04:31:51;;;;;;;;;;;19.50;35.10;;;;;;8366447;28;20002;-46
2023/02/25 04:35:51;;;;;;;;;;;19.40;35.00;;;;;;8369283;28;19928;-46
2023/02/25 04:39:52;;;;;;;;;;;19.50;35.00;;;;;;8368736;28;19917;-45
2023/02/25 04:43:52;;;;;;;;;;;19.50;35.00;;;;;;8369219;28;19916;-45
2023/02/25 04:47:59;;;;;;;;;;;19.50;35.00;;;;;;8369342;28;19916;-46
2023/02/25 04:51:59;;;;;;;;;;;19.50;35.00;;;;;;8368611;28;19916;-45
2023/02/25 04:56:01;;;;;;;;;;;19.40;34.90;;;;;;8368805;28;19933;-45
2023/02/25 05:00:01;;;;;;;;;;;19.50;35.00;;;;;;8368630;28;19925;-45
2023/02/25 05:04:01;;;;;;;;;;;19.50;35.00;;;;;;8368035;28;20403;-45
2023/02/25 05:08:03;;;;;;;;;;;19.50;35.00;;;;;;8368651;28;20350;-45
2023/02/25 05:12:05;;;;;;;;;;;19.40;35.00;;;;;;8366521;28;21283;-46
2023/02/25 05:16:09;;;;;;;;;;;19.50;34.90;;;;;;8367561;28;19931;-45
2023/02/25 05:20:11;;;;;;;;;;;19.60;34.80;;;;;;8368043;28;20008;-45
2023/02/25 05:24:11;;;;;;;;;;;19.70;34.80;;;;;;8367917;28;19923;-46
2023/02/25 05:28:12;;;;;;;;;;;19.90;34.70;;;;;;8367497;28;19920;-46
2023/02/25 05:32:12;;;;;;;;;;;19.90;34.70;;;;;;8367912;28;19939;-45
2023/02/25 05:36:14;;;;;;;;;;;20.00;34.70;;;;;;8367338;28;19920;-45
2023/02/25 05:40:14;;;;;;;;;;;20.10;34.60;;;;;;8366931;28;19920;-45
2023/02/25 05:44:15;;;;;;;;;;;20.20;34.50;;;;;;8366704;28;19917;-46
2023/02/25 05:48:15;;;;;;;;;;;20.20;34.40;;;;;;8367240;28;19988;-45
2023/02/25 05:52:16;;;;;;;;;;;20.30;34.50;;;;;;8366610;28;20505;-46
2023/02/25 05:56:18;;;;;;;;;;;20.30;34.40;;;;;;8366687;28;19963;-46
2023/02/25 06:00:20;;;;;;;;;;;20.30;34.40;;;;;;8367400;28;20679;-46
2023/02/25 06:04:21;;;;;;;;;;;20.40;34.30;;;;;;8366076;28;19920;-46
2023/02/25 06:08:21;;;;;;;;;;;20.40;34.40;;;;;;8366914;28;19913;-45
2023/02/25 06:12:21;;;;;;;;;;;20.40;34.40;;;;;;8366276;28;19917;-46
2023/02/25 06:16:24;;;;;;;;;;;20.40;34.40;;;;;;8365656;28;19947;-46
2023/02/25 06:20:24;;;;;;;;;;;20.40;34.40;;;;;;8366024;28;19924;-46
2023/02/25 06:24:25;;;;;;;;;;;20.40;34.40;;;;;;8366008;28;20286;-45
2023/02/25 06:28:25;;;;;;;;;;;20.30;34.30;;;;;;8365480;28;20447;-47
2023/02/25 06:32:25;;;;;;;;;;;20.30;34.40;;;;;;8365881;28;19917;-46
2023/02/25 06:36:26;;;;;;;;;;;20.30;34.40;;;;;;8365679;28;19932;-47
2023/02/25 06:40:27;;;;;;;;;;;20.30;34.40;;;;;;8364856;28;19970;-45
2023/02/25 06:44:28;;;;;;;;;;;20.30;34.50;;;;;;8365523;28;19916;-46
2023/02/25 06:48:28;;;;;;;;;;;20.30;34.40;;;;;;8365163;28;19940;-46
2023/02/25 06:52:29;;;;;;;;;;;20.20;34.40;;;;;;8364539;28;19920;-47
2023/02/25 06:56:30;;;;;;;;;;;20.30;34.50;;;;;;8363680;28;20019;-45
2023/02/25 07:00:30;;;;;;;;;;;20.30;34.50;;;;;;8365280;28;19927;-50
2023/02/25 07:04:31;;;;;;;;;;;20.30;34.50;;;;;;8364328;28;19913;-46
2023/02/25 07:08:31;;;;;;;;;;;20.30;34.40;;;;;;8364481;28;19917;-46
2023/02/25 07:12:32;;;;;;;;;;;20.30;34.30;;;;;;8363969;28;19948;-44
2023/02/25 07:16:33;;;;;;;;;;;20.40;34.30;;;;;;8364132;28;20004;-46
2023/02/25 07:20:33;;;;;;;;;;;20.40;34.30;;;;;;8363953;28;19979;-46
2023/02/25 07:24:34;;;;;;;;;;;20.40;34.30;;;;;;8363782;28;19966;-46
2023/02/25 07:28:35;;;;;;;;;;;20.50;34.30;;;;;;8363669;28;19921;-46
2023/02/25 07:32:35;;;;;;;;;;;20.50;34.30;;;;;;8363799;28;19920;-46
2023/02/25 07:36:36;;;;;;;;;;;20.50;34.20;;;;;;8363050;28;19925;-46
2023/02/25 07:40:38;;;;;;;;;;;20.50;34.20;;;;;;8363404;28;20372;-44
2023/02/25 07:44:39;;;;;;;;;;;20.50;34.20;;;;;;8363739;28;19913;-46
2023/02/25 07:48:40;;;;;;;;;;;20.50;34.20;;;;;;8362688;28;20335;-47
2023/02/25 07:52:41;;;;;;;;;;;20.60;34.20;;;;;;8363370;28;20396;-47
2023/02/25 07:56:41;;;;;;;;;;;20.60;34.20;;;;;;8363225;28;19963;-46
2023/02/25 08:00:44;;;;;;;;;;;20.50;34.10;;;;;;8362981;28;19964;-46
2023/02/25 08:04:45;;;;;;;;;;;20.50;34.20;;;;;;8361770;28;19923;-48
2023/02/25 08:08:45;;;;;;;;;;;20.50;34.20;;;;;;8362827;28;19921;-45
2023/02/25 08:12:46;;;;;;;;;;;20.50;34.20;;;;;;8362688;28;19920;-47
2023/02/25 08:16:47;;;;;;;;;;;20.50;34.20;;;;;;8363181;28;20476;-46
2023/02/25 08:20:47;;;;;;;;;;;20.50;34.20;;;;;;8345143;28;19917;-45
2023/02/25 08:24:48;;;;;;;;;;;20.50;34.30;;;;;;8362431;28;20019;-45
2023/02/25 08:28:49;;;;;;;;;;;20.40;34.20;;;;;;8362855;28;19924;-46
2023/02/25 08:32:49;;;;;;;;;;;20.40;34.30;;;;;;8344854;28;19955;-46
2023/02/25 08:36:50;;;;;;;;;;;20.40;34.30;;;;;;8362214;28;19925;-45
2023/02/25 08:40:50;;;;;;;;;;;20.40;34.30;;;;;;8362996;28;19999;-47
2023/02/25 08:44:51;;;;;;;;;;;20.50;34.30;;;;;;8362710;28;19913;-46
2023/02/25 08:48:52;;;;;;;;;;;20.50;34.20;;;;;;8361862;28;19925;-47
2023/02/25 08:52:52;;;;;;;;;;;20.50;34.10;;;;;;8362243;28;19951;-46
2023/02/25 08:56:54;;;;;;;;;;;20.60;34.10;;;;;;8362085;28;19932;-47
2023/02/25 09:00:54;;;;;;;;;;;20.60;34.10;;;;;;8362300;28;19921;-47
2023/02/25 09:04:55;;;;;;;;;;;20.60;34.00;;;;;;8362564;28;19928;-48
2023/02/25 09:08:55;;;;;;;;;;;20.70;34.00;;;;;;8361912;28;20427;-46
2023/02/25 09:12:56;;;;;;;;;;;20.70;34.00;;;;;;8361461;28;19917;-46
2023/02/25 09:16:56;;;;;;;;;;;20.70;34.00;;;;;;8362346;28;19940;-46
2023/02/25 09:20:57;;;;;;;;;;;20.70;34.00;;;;;;8367887;28;19919;-47
2023/02/25 09:24:57;;;;;;;;;;;20.70;34.00;;;;;;8367432;28;19917;-47
2023/02/25 09:29:02;;;;;;;;;;;20.70;34.00;;;;;;8367593;28;19923;-48
2023/02/25 09:33:03;;;;;;;;;;;20.70;33.90;;;;;;8367474;28;20366;-46
2023/02/25 09:37:03;;;;;;;;;;;20.70;34.00;;;;;;8366927;28;19932;-46
2023/02/25 09:41:13;;;;;;;;;;;20.70;34.00;;;;;;8367436;28;19919;-47
2023/02/25 09:45:16;;;;;;;;;;;20.70;34.00;;;;;;8367371;28;19928;-46
2023/02/25 09:49:26;;;;;;;;;;;20.60;34.00;;;;;;8366545;28;19917;-46
2023/02/25 09:53:36;;;;;;;;;;;20.60;34.00;;;;;;8366938;28;19991;-47
2023/02/25 09:57:40;;;;;;;;;;;20.60;34.10;;;;;;8366211;28;19973;-45
2023/02/25 10:01:47;;;;;;;;;;;20.50;34.10;;;;;;8367236;28;19920;-46
2023/02/25 10:05:51;;;;;;;;;;;20.50;34.10;;;;;;8366861;28;20322;-47
2023/02/25 10:10:00;;;;;;;;;;;20.50;34.10;;;;;;8366124;28;20842;-46
2023/02/25 10:14:03;;;;;;;;;;;20.50;34.00;;;;;;8366227;28;19928;-46
2023/02/25 10:18:24;;;;;;;;;;;20.60;33.90;;;;;;8366030;28;19925;-48
2023/02/25 10:22:30;;;;;;;;;;;20.70;33.80;;;;;;8351442;28;20565;-46
2023/02/25 10:26:37;;;;;;;;;;;20.70;33.80;;;;;;8366190;28;19917;-47
2023/02/25 10:30:57;;;;;;;;;;;20.70;33.80;;;;;;8365464;28;20000;-46
2023/02/25 10:35:04;;;;;;;;;;;20.70;33.80;;;;;;8365492;28;19959;-45
2023/02/25 10:39:05;;;;;;;;;;;20.80;33.80;;;;;;8365479;28;19924;-46
2023/02/25 10:43:14;;;;;;;;;;;20.80;33.70;;;;;;8364984;28;19922;-45
2023/02/25 10:47:19;;;;;;;;;;;20.80;33.70;;;;;;8365237;28;19924;-46
2023/02/25 10:51:19;;;;;;;;;;;20.80;33.70;;;;;;8365052;28;20362;-46
2023/02/25 10:55:25;;;;;;;;;;;20.80;33.70;;;;;;8346202;28;20027;-47
2023/02/25 10:59:32;;;;;;;;;;;20.80;33.70;;;;;;8364332;28;19921;-46
2023/02/25 11:03:37;;;;;;;;;;;20.80;33.70;;;;;;8363046;28;19924;-47
2023/02/25 11:07:37;;;;;;;;;;;20.80;33.70;;;;;;8364630;28;19944;-47
2023/02/25 11:11:38;;;;;;;;;;;20.80;33.70;;;;;;8364320;28;20003;-46
2023/02/25 11:15:40;;;;;;;;;;;20.80;33.60;;;;;;8363948;28;19928;-46
2023/02/25 11:19:43;;;;;;;;;;;20.90;33.60;;;;;;8364245;28;19916;-46
2023/02/25 11:23:45;;;;;;;;;;;20.80;33.50;;;;;;8364305;28;19986;-47
2023/02/25 11:27:52;;;;;;;;;;;20.80;33.60;;;;;;8363607;28;20003;-46
2023/02/25 11:31:55;;;;;;;;;;;20.80;33.60;;;;;;8363973;28;19917;-47
2023/02/25 11:35:58;;;;;;;;;;;20.80;33.60;;;;;;8363759;28;19925;-47
2023/02/25 11:39:59;;;;;;;;;;;20.70;33.50;;;;;;8362692;28;19916;-46
2023/02/25 11:44:10;;;;;;;;;;;20.70;33.60;;;;;;8363644;28;20362;-47
2023/02/25 11:48:19;;;;;;;;;;;20.60;33.60;;;;;;8363544;28;19958;-46
2023/02/25 11:52:24;;;;;;;;;;;20.60;33.60;;;;;;8362823;28;19917;-48
2023/02/25 11:56:29;;;;;;;;;;;20.60;33.70;;;;;;8338209;28;19976;-47
2023/02/25 12:00:42;;;;;;;;;;;20.50;33.70;;;;;;8362891;28;20003;-46
2023/02/25 12:05:02;;;;;;;;;;;20.50;33.70;;;;;;8362717;28;20393;-47
2023/02/25 12:09:02;;;;;;;;;;;20.60;33.70;;;;;;8362866;28;20366;-46
2023/02/25 12:13:21;;;;;;;;;;;20.60;33.60;;;;;;8362523;28;19924;-48
2023/02/25 12:17:22;;;;;;;;;;;20.70;33.60;;;;;;8362845;28;20386;-46
2023/02/25 12:21:22;;;;;;;;;;;20.70;33.50;;;;;;8363204;28;19913;-47
2023/02/25 12:25:40;;;;;;;;;;;20.70;33.40;;;;;;8362177;28;19916;-46
2023/02/25 12:29:44;;;;;;;;;;;20.80;33.40;;;;;;8362759;28;19924;-46
2023/02/25 12:33:47;;;;;;;;;;;20.80;33.40;;;;;;8361984;28;19921;-46
2023/02/25 12:38:06;;;;;;;;;;;20.80;33.30;;;;;;8362635;28;19925;-46
2023/02/25 12:42:33;;;;;;;;;;;20.90;33.30;;;;;;8362616;28;19981;-46
2023/02/25 12:46:52;;;;;;;;;;;20.80;33.20;;;;;;8362408;28;19913;-45
2023/02/25 12:51:10;;;;;;;;;;;20.90;33.30;;;;;;8362743;28;20443;-46
2023/02/25 12:55:38;;;;;;;;;;;20.80;33.30;;;;;;8368124;28;19924;-47
2023/02/25 13:00:07;;;;;;;;;;;20.80;33.30;;;;;;8368725;28;19929;-47
2023/02/25 13:04:26;;;;;;;;;;;20.80;33.30;;;;;;8364773;28;19955;-48
2023/02/25 13:08:34;;;;;;;;;;;20.70;33.20;;;;;;8368282;28;19921;-46
2023/02/25 13:12:53;;;;;;;;;;;20.70;33.20;;;;;;8367577;28;20389;-45
2023/02/25 13:16:57;;;;;;;;;;;20.70;33.30;;;;;;8368137;28;20386;-43
2023/02/25 13:21:01;;;;;;;;;;;20.70;33.30;;;;;;8367511;28;20003;-44
2023/02/25 13:25:18;;;;;;;;;;;20.60;33.20;;;;;;8367080;28;20333;-45
2023/02/25 13:29:18;;;;;;;;;;;20.60;33.10;;;;;;8367376;28;19923;-45
2023/02/25 13:33:31;;;;;;;;;;;20.60;33.10;;;;;;8367340;28;20000;-44
2023/02/25 13:37:40;;;;;;;;;;;20.60;33.20;;;;;;8366582;28;19921;-45
2023/02/25 13:41:59;;;;;;;;;;;20.60;33.20;;;;;;8367502;28;19920;-46
2023/02/25 13:46:01;;;;;;;;;;;20.70;33.30;;;;;;8366471;28;19921;-45
2023/02/25 13:50:04;;;;;;;;;;;20.60;33.10;;;;;;8367223;28;20456;-45
2023/02/25 13:54:23;;;;;;;;;;;20.70;33.00;;;;;;8361796;28;19917;-46
2023/02/25 13:58:42;;;;;;;;;;;20.80;33.10;;;;;;8341227;28;19931;-48
2023/02/25 14:02:57;;;;;;;;;;;20.80;33.00;;;;;;8366031;28;19917;-43
2023/02/25 14:07:17;;;;;;;;;;;20.80;33.00;;;;;;8366091;28;20289;-45
2023/02/25 14:11:27;;;;;;;;;;;20.90;33.00;;;;;;8339426;28;19917;-46
2023/02/25 14:16:03;;;;;;;;;;;20.90;33.00;;;;;;8357548;28;19964;-46
2023/02/25 14:20:15;;;;;;;;;;;21.00;32.90;;;;;;8282331;28;19925;-45
2023/02/25 14:24:15;;;;;;;;;;;20.90;32.80;;;;;;8346775;28;20374;-45
2023/02/25 14:28:24;;;;;;;;;;;20.90;32.80;;;;;;8364958;28;19927;-45
2023/02/25 14:32:43;;;;;;;;;;;20.90;32.80;;;;;;8365765;28;19999;-47
2023/02/25 14:36:45;;;;;;;;;;;20.90;32.80;;;;;;8365066;28;19925;-44
2023/02/25 14:40:51;;;;;;;;;;;20.90;32.90;;;;;;8365231;28;20008;-45
2023/02/25 14:44:55;;;;;;;;;;;20.90;32.80;;;;;;8365119;28;19920;-46
2023/02/25 14:49:12;;;;;;;;;;;20.90;32.80;;;;;;8364321;28;19916;-46
2023/02/25 14:53:13;;;;;;;;;;;20.80;32.80;;;;;;8364900;28;19916;-45
2023/02/25 14:57:28;;;;;;;;;;;20.80;32.80;;;;;;8365010;28;19925;-46
2023/02/25 15:01:47;;;;;;;;;;;20.70;32.80;;;;;;8364529;28;20043;-46
2023/02/25 15:06:06;;;;;;;;;;;20.70;32.90;;;;;;8364403;28;20022;-45
2023/02/25 15:10:25;;;;;;;;;;;20.70;33.00;;;;;;8363743;28;20024;-45
2023/02/25 15:14:44;;;;;;;;;;;20.70;33.00;;;;;;8363549;28;19920;-45
2023/02/25 15:18:57;;;;;;;;;;;20.70;32.80;;;;;;8363634;28;19924;-45
2023/02/25 15:23:05;;;;;;;;;;;20.80;32.80;;;;;;8364666;28;20082;-47
2023/02/25 15:27:24;;;;;;;;;;;20.80;32.80;;;;;;8364281;28;19920;-46
2023/02/25 15:31:27;;;;;;;;;;;20.80;32.60;;;;;;8363267;28;19923;-45
2023/02/25 15:35:33;;;;;;;;;;;20.90;32.70;;;;;;8363738;28;20008;-45
2023/02/25 15:39:39;;;;;;;;;;;20.90;32.60;;;;;;8363201;28;19947;-46
2023/02/25 15:43:41;;;;;;;;;;;20.90;32.50;;;;;;8363501;28;19917;-45
2023/02/25 15:47:41;;;;;;;;;;;21.00;32.40;;;;;;8363893;28;19913;-45
2023/02/25 15:51:43;;;;;;;;;;;21.00;32.40;;;;;;8363028;28;19960;-45
2023/02/25 15:55:44;;;;;;;;;;;21.00;32.40;;;;;;8363012;28;20267;-45
2023/02/25 15:59:47;;;;;;;;;;;21.00;32.30;;;;;;8363405;28;19921;-45
2023/02/25 16:03:48;;;;;;;;;;;21.00;32.30;;;;;;8362563;28;19951;-46
2023/02/25 16:07:50;;;;;;;;;;;20.90;32.20;;;;;;8363209;28;20358;-46
2023/02/25 16:11:54;;;;;;;;;;;20.90;32.30;;;;;;8363230;28;20273;-46
2023/02/25 16:15:56;;;;;;;;;;;20.90;32.20;;;;;;8362348;28;20070;-45
2023/02/25 16:19:58;;;;;;;;;;;20.90;32.20;;;;;;8363090;28;20354;-45
2023/02/25 16:23:59;;;;;;;;;;;20.80;32.10;;;;;;8362924;28;20332;-46
2023/02/25 16:28:14;;;;;;;;;;;20.80;32.20;;;;;;8366216;28;19939;-45
2023/02/25 16:32:33;;;;;;;;;;;20.80;32.10;;;;;;8369774;28;19917;-46
2023/02/25 16:36:52;;;;;;;;;;;20.70;32.20;;;;;;8368743;28;19975;-42
2023/02/25 16:40:53;;;;;;;;;;;20.70;32.30;;;;;;8369295;28;20397;-45
2023/02/25 16:44:59;;;;;;;;;;;20.70;32.30;;;;;;8369021;28;19960;-45
2023/02/25 16:49:06;;;;;;;;;;;20.70;32.30;;;;;;8368450;28;19997;-46
2023/02/25 16:53:11;;;;;;;;;;;20.70;32.30;;;;;;8368878;28;19913;-45
2023/02/25 16:57:21;;;;;;;;;;;20.80;32.20;;;;;;8368599;28;19965;-45
2023/02/25 17:01:21;;;;;;;;;;;20.80;32.30;;;;;;8368489;28;19921;-45
2023/02/25 17:05:30;;;;;;;;;;;20.80;32.10;;;;;;8367460;28;20277;-45
2023/02/25 17:09:30;;;;;;;;;;;20.80;32.10;;;;;;8367650;28;20282;-45
2023/02/25 17:13:33;;;;;;;;;;;20.90;32.20;;;;;;8367891;28;19913;-45
2023/02/25 17:17:35;;;;;;;;;;;20.90;32.00;;;;;;8367838;28;19932;-44
2023/02/25 17:21:37;;;;;;;;;;;20.90;31.90;;;;;;8367500;28;19913;-45
2023/02/25 17:25:39;;;;;;;;;;;20.90;31.90;;;;;;8367528;28;19939;-45
2023/02/25 17:29:39;;;;;;;;;;;20.90;31.90;;;;;;8367654;28;19943;-45
2023/02/25 17:33:47;;;;;;;;;;;20.90;31.80;;;;;;8367279;28;19917;-44
2023/02/25 17:37:48;;;;;;;;;;;20.90;31.90;;;;;;8366376;28;19950;-44
2023/02/25 17:41:49;;;;;;;;;;;20.90;31.80;;;;;;8367373;28;19917;-44
2023/02/25 17:46:02;;;;;;;;;;;20.80;31.70;;;;;;8366762;28;20416;-46
2023/02/25 17:50:33;;;;;;;;;;;20.80;31.70;;;;;;8367299;28;20382;-45
2023/02/25 17:54:34;;;;;;;;;;;20.80;31.70;;;;;;8349610;28;19924;-44
2023/02/25 17:58:35;;;;;;;;;;;20.70;31.80;;;;;;8366697;28;19979;-44
2023/02/25 18:02:37;;;;;;;;;;;20.70;31.80;;;;;;8366531;28;20419;-45
2023/02/25 18:06:38;;;;;;;;;;;20.60;31.80;;;;;;8366177;28;20320;-43
2023/02/25 18:10:41;;;;;;;;;;;20.60;31.80;;;;;;8367022;28;19963;-44
2023/02/25 18:14:43;;;;;;;;;;;20.60;31.90;;;;;;8366138;28;19927;-46
2023/02/25 18:18:48;;;;;;;;;;;20.60;32.00;;;;;;8366005;28;19927;-45
2023/02/25 18:22:48;;;;;;;;;;;20.60;32.00;;;;;;8366368;28;19917;-44
2023/02/25 18:27:02;;;;;;;;;;;20.60;31.90;;;;;;8365932;28;19917;-44
2023/02/25 18:31:03;;;;;;;;;;;20.70;31.90;;;;;;8365471;28;20262;-46
2023/02/25 18:35:04;;;;;;;;;;;20.70;31.90;;;;;;8365583;28;19925;-44
2023/02/25 18:39:05;;;;;;;;;;;20.70;31.80;;;;;;8365961;28;19913;-44
2023/02/25 18:43:05;;;;;;;;;;;20.70;31.80;;;;;;8365080;28;19917;-44
2023/02/25 18:47:06;;;;;;;;;;;20.80;31.80;;;;;;8365324;28;19921;-44
2023/02/25 18:51:11;;;;;;;;;;;20.80;31.70;;;;;;8365006;28;20050;-44
2023/02/25 18:55:14;;;;;;;;;;;20.80;31.60;;;;;;8364491;28;19924;-44
2023/02/25 18:59:15;;;;;;;;;;;20.80;31.60;;;;;;8365322;28;19975;-44
2023/02/25 19:03:27;;;;;;;;;;;20.80;31.60;;;;;;8364715;28;20362;-44
2023/02/25 19:07:29;;;;;;;;;;;20.80;31.60;;;;;;8364272;28;20362;-43
2023/02/25 19:11:32;;;;;;;;;;;20.70;31.60;;;;;;8364649;28;20337;-44
2023/02/25 19:15:32;;;;;;;;;;;20.70;31.50;;;;;;8364369;28;20019;-44
2023/02/25 19:19:33;;;;;;;;;;;20.70;31.40;;;;;;8363867;28;19920;-43
2023/02/25 19:23:33;;;;;;;;;;;20.70;31.40;;;;;;8364479;28;19917;-43
2023/02/25 19:27:34;;;;;;;;;;;20.60;31.40;;;;;;8363680;28;19939;-42
2023/02/25 19:31:34;;;;;;;;;;;20.60;31.50;;;;;;8363948;28;20411;-44
2023/02/25 19:35:36;;;;;;;;;;;20.50;31.50;;;;;;8363982;28;19947;-44
2023/02/25 19:39:37;;;;;;;;;;;20.50;31.50;;;;;;8363495;28;19916;-43
2023/02/25 19:43:37;;;;;;;;;;;20.50;31.50;;;;;;8363522;28;20393;-42
2023/02/25 19:47:37;;;;;;;;;;;20.50;31.60;;;;;;8363398;28;19917;-45
2023/02/25 19:51:38;;;;;;;;;;;20.50;31.60;;;;;;8362969;28;19978;-42
2023/02/25 19:55:40;;;;;;;;;;;20.50;31.70;;;;;;8363169;28;20381;-43
2023/02/25 19:59:41;;;;;;;;;;;20.60;31.70;;;;;;8363866;28;19947;-43
2023/02/25 20:03:41;;;;;;;;;;;20.60;31.60;;;;;;8362271;28;19916;-44
2023/02/25 20:07:42;;;;;;;;;;;20.60;31.50;;;;;;8363143;28;19995;-44
2023/02/25 20:11:45;;;;;;;;;;;20.70;31.60;;;;;;8362182;28;20290;-44
2023/02/25 20:15:45;;;;;;;;;;;20.70;31.60;;;;;;8344499;28;19931;-43
2023/02/25 20:19:46;;;;;;;;;;;20.70;31.40;;;;;;8363479;28;19921;-44
2023/02/25 20:23:46;;;;;;;;;;;20.70;31.40;;;;;;8362731;28;19927;-44
2023/02/25 20:27:47;;;;;;;;;;;20.80;31.50;;;;;;8361976;28;20039;-44
2023/02/25 20:31:47;;;;;;;;;;;20.80;31.40;;;;;;8362562;28;19921;-44
2023/02/25 20:35:48;;;;;;;;;;;20.70;31.40;;;;;;8362218;28;19925;-44
2023/02/25 20:39:50;;;;;;;;;;;20.70;31.30;;;;;;8361832;28;19974;-45
2023/02/25 20:43:51;;;;;;;;;;;20.70;31.30;;;;;;8362484;28;19924;-44
2023/02/25 20:47:52;;;;;;;;;;;20.60;31.30;;;;;;8362532;28;20358;-44
2023/02/25 20:51:52;;;;;;;;;;;20.60;31.30;;;;;;8361989;28;19917;-45
2023/02/25 20:55:54;;;;;;;;;;;20.60;31.30;;;;;;8362163;28;19960;-44
2023/02/25 20:59:55;;;;;;;;;;;20.50;31.20;;;;;;8362661;28;19971;-43
2023/02/25 21:03:55;;;;;;;;;;;20.50;31.30;;;;;;8361627;28;20251;-45
2023/02/25 21:07:56;;;;;;;;;;;20.50;31.30;;;;;;8362109;28;20349;-44
2023/02/25 21:11:56;;;;;;;;;;;20.40;31.40;;;;;;8362052;28;20341;-44
2023/02/25 21:15:58;;;;;;;;;;;20.40;31.40;;;;;;8366357;28;19995;-43
2023/02/25 21:19:58;;;;;;;;;;;20.40;31.40;;;;;;8368578;28;19920;-44
2023/02/25 21:23:59;;;;;;;;;;;20.30;31.40;;;;;;8368036;28;20585;-44
2023/02/25 21:28:00;;;;;;;;;;;20.30;31.40;;;;;;8367448;28;19926;-44
2023/02/25 21:32:01;;;;;;;;;;;20.30;31.50;;;;;;8367052;28;20316;-43
2023/02/25 21:36:01;;;;;;;;;;;20.30;31.50;;;;;;8367877;28;19971;-43
2023/02/25 21:40:02;;;;;;;;;;;20.20;31.60;;;;;;8367112;28;19947;-43
2023/02/25 21:44:03;;;;;;;;;;;20.20;31.60;;;;;;8367365;28;19925;-45
2023/02/25 21:48:04;;;;;;;;;;;20.10;31.70;;;;;;8367365;28;20031;-43
2023/02/25 21:52:04;;;;;;;;;;;20.10;31.80;;;;;;8366446;28;19917;-45
2023/02/25 21:56:10;;;;;;;;;;;20.10;31.70;;;;;;8366908;28;19932;-45
2023/02/25 22:00:10;;;;;;;;;;;20.00;31.70;;;;;;8367515;28;19921;-43
2023/02/25 22:04:11;;;;;;;;;;;20.00;31.70;;;;;;8366078;28;19923;-45
2023/02/25 22:08:11;;;;;;;;;;;20.00;31.70;;;;;;8366490;28;19917;-44
2023/02/25 22:12:12;;;;;;;;;;;19.90;31.70;;;;;;8366441;28;19917;-44
2023/02/25 22:16:13;;;;;;;;;;;19.90;31.70;;;;;;8365868;28;19924;-44
2023/02/25 22:20:13;;;;;;;;;;;19.90;31.80;;;;;;8366348;28;19919;-44
2023/02/25 22:24:14;;;;;;;;;;;19.80;31.80;;;;;;8365519;28;20392;-44
2023/02/25 22:28:14;;;;;;;;;;;19.80;31.80;;;;;;8365375;28;19924;-44
2023/02/25 22:32:15;;;;;;;;;;;19.80;31.80;;;;;;8365807;28;20328;-43
2023/02/25 22:36:16;;;;;;;;;;;19.80;31.90;;;;;;8365494;28;20050;-43
2023/02/25 22:40:16;;;;;;;;;;;19.70;31.80;;;;;;8365359;28;20453;-44
2023/02/25 22:44:17;;;;;;;;;;;19.70;31.80;;;;;;8365673;28;19921;-44
2023/02/25 22:48:17;;;;;;;;;;;19.70;31.80;;;;;;8365286;28;20066;-43
2023/02/25 22:52:18;;;;;;;;;;;19.70;31.80;;;;;;8364744;28;20259;-44
2023/02/25 22:56:18;;;;;;;;;;;19.70;31.90;;;;;;8364855;28;21988;-44
2023/02/25 23:00:19;;;;;;;;;;;19.60;31.80;;;;;;8364352;28;19925;-44
2023/02/25 23:04:20;;;;;;;;;;;19.60;31.90;;;;;;8337111;28;19941;-42
2023/02/25 23:08:21;;;;;;;;;;;19.60;31.80;;;;;;8332739;28;20090;-43
2023/02/25 23:12:21;;;;;;;;;;;19.60;31.90;;;;;;8364831;28;19994;-43
2023/02/25 23:16:23;;;;;;;;;;;19.50;31.80;;;;;;8363856;28;19924;-43
2023/02/25 23:20:23;;;;;;;;;;;19.50;31.80;;;;;;8364744;28;19912;-43
2023/02/25 23:24:24;;;;;;;;;;;19.50;31.80;;;;;;8364194;28;19917;-43
2023/02/25 23:28:24;;;;;;;;;;;19.50;31.80;;;;;;8363559;28;20381;-45
2023/02/25 23:32:25;;;;;;;;;;;19.50;31.80;;;;;;8364036;28;19917;-43
2023/02/25 23:36:25;;;;;;;;;;;19.50;31.80;;;;;;8362979;28;19920;-44